createdAt,value
2023-04-16T00:01:36.013Z,5.80
2023-04-16T00:04:02.765Z,5.81
2023-04-16T00:06:29.590Z,5.81
2023-04-16T00:08:56.413Z,5.84
2023-04-16T00:11:22.836Z,5.83
2023-04-16T00:13:49.374Z,5.78
2023-04-16T00:16:16.145Z,5.81
2023-04-16T00:18:42.618Z,5.80
2023-04-16T00:21:09.074Z,5.81
2023-04-16T00:23:35.725Z,5.80
2023-04-16T00:26:02.187Z,5.80
2023-04-16T00:28:29.016Z,5.72
2023-04-16T00:30:55.753Z,5.80
2023-04-16T00:33:22.691Z,5.76
2023-04-16T00:35:49.371Z,5.75
2023-04-16T00:38:16.125Z,5.79
2023-04-16T00:40:42.735Z,5.75
2023-04-16T00:43:09.230Z,5.73
2023-04-16T00:45:36.521Z,5.80
2023-04-16T00:48:03.304Z,5.85
2023-04-16T00:50:30.000Z,5.77
2023-04-16T00:52:57.086Z,5.83
2023-04-16T00:55:23.743Z,5.85
2023-04-16T00:57:50.513Z,5.73
2023-04-16T01:00:17.214Z,5.83
2023-04-16T01:02:43.834Z,5.83
2023-04-16T01:08:57.609Z,5.82
2023-04-16T01:11:24.102Z,5.84
2023-04-16T01:13:50.982Z,5.81
2023-04-16T01:16:17.547Z,5.84
2023-04-16T01:18:44.026Z,5.80
2023-04-16T01:21:10.552Z,5.80
2023-04-16T01:23:36.992Z,5.77
2023-04-16T01:26:03.556Z,5.82
2023-04-16T01:28:30.056Z,5.80
2023-04-16T01:30:56.556Z,5.86
2023-04-16T01:33:23.080Z,5.74
2023-04-16T01:35:49.628Z,5.82
2023-04-16T01:38:16.488Z,5.83
2023-04-16T01:40:42.952Z,5.79
2023-04-16T01:43:09.511Z,5.84
2023-04-16T01:45:36.011Z,5.75
2023-04-16T01:48:03.766Z,5.77
2023-04-16T01:50:30.837Z,5.81
2023-04-16T01:52:57.356Z,5.80
2023-04-16T01:55:23.843Z,5.78
2023-04-16T01:57:50.832Z,5.81
2023-04-16T02:00:17.286Z,5.72
2023-04-16T02:02:43.861Z,5.73
2023-04-16T02:05:10.402Z,5.70
2023-04-16T02:07:36.805Z,5.72
2023-04-16T02:10:04.700Z,5.83
2023-04-16T02:12:31.090Z,5.77
2023-04-16T02:14:57.517Z,5.83
2023-04-16T02:17:24.025Z,5.71
2023-04-16T02:19:50.651Z,5.81
2023-04-16T02:22:17.156Z,5.79
2023-04-16T02:24:43.675Z,5.77
2023-04-16T02:27:10.126Z,5.70
2023-04-16T02:29:36.552Z,5.68
2023-04-16T02:32:03.122Z,5.59
2023-04-16T02:34:29.703Z,5.61
2023-04-16T02:36:58.336Z,5.61
2023-04-16T02:39:24.816Z,5.57
2023-04-16T02:41:51.424Z,5.62
2023-04-16T02:44:17.930Z,5.61
2023-04-16T02:46:44.358Z,5.59
2023-04-16T02:49:11.010Z,5.70
2023-04-16T02:51:37.482Z,5.53
2023-04-16T02:54:03.895Z,5.62
2023-04-16T02:56:30.446Z,5.57
2023-04-16T02:58:56.863Z,5.57
2023-04-16T03:01:23.482Z,5.58
2023-04-16T03:03:49.983Z,5.50
2023-04-16T03:06:16.780Z,5.61
2023-04-16T03:08:43.343Z,5.62
2023-04-16T03:11:09.747Z,5.62
2023-04-16T03:13:36.279Z,5.61
2023-04-16T03:16:03.025Z,5.57
2023-04-16T03:18:29.672Z,5.60
2023-04-16T03:20:56.164Z,5.57
2023-04-16T03:23:22.601Z,5.66
2023-04-16T03:25:49.066Z,5.60
2023-04-16T03:28:15.687Z,5.58
2023-04-16T03:30:42.134Z,5.57
2023-04-16T03:33:08.565Z,5.59
2023-04-16T03:35:35.350Z,5.56
2023-04-16T03:38:01.780Z,5.57
2023-04-16T03:40:28.245Z,5.51
2023-04-16T03:42:54.740Z,5.50
2023-04-16T03:45:21.160Z,5.47
2023-04-16T03:47:52.410Z,5.45
2023-04-16T03:50:19.558Z,5.39
2023-04-16T03:52:46.932Z,5.45
2023-04-16T03:55:13.906Z,5.43
2023-04-16T03:57:40.692Z,5.39
2023-04-16T04:00:07.865Z,5.41
2023-04-16T04:02:34.516Z,5.47
2023-04-16T04:05:01.108Z,5.35
2023-04-16T04:07:27.597Z,5.33
2023-04-16T04:09:54.252Z,5.33
2023-04-16T04:12:20.706Z,5.33
2023-04-16T04:14:47.101Z,5.39
2023-04-16T04:17:13.590Z,5.30
2023-04-16T04:19:47.125Z,5.35
2023-04-16T04:22:21.022Z,5.29
2023-04-16T04:24:47.507Z,5.26
2023-04-16T04:27:13.994Z,5.17
2023-04-16T04:29:40.551Z,5.24
2023-04-16T04:32:07.111Z,5.28
2023-04-16T04:34:33.582Z,5.23
2023-04-16T04:37:00.165Z,5.25
2023-04-16T04:39:27.159Z,5.26
2023-04-16T04:41:53.658Z,5.23
2023-04-16T04:44:20.165Z,5.30
2023-04-16T04:46:46.612Z,5.28
2023-04-16T04:49:13.106Z,5.22
2023-04-16T04:51:39.601Z,5.27
2023-04-16T04:54:06.157Z,5.21
2023-04-16T04:56:32.565Z,5.16
2023-04-16T04:58:59.029Z,5.24
2023-04-16T05:01:25.599Z,5.29
2023-04-16T05:03:52.116Z,5.26
2023-04-16T05:06:18.652Z,5.26
2023-04-16T05:08:45.069Z,5.27
2023-04-16T05:11:11.537Z,5.31
2023-04-16T05:13:38.062Z,5.24
2023-04-16T05:16:04.798Z,5.31
2023-04-16T05:18:32.615Z,5.23
2023-04-16T05:20:59.092Z,5.24
2023-04-16T05:23:25.561Z,5.24
2023-04-16T05:25:52.009Z,5.23
2023-04-16T05:28:18.483Z,5.24
2023-04-16T05:30:44.901Z,5.25
2023-04-16T05:33:11.411Z,5.34
2023-04-16T05:35:37.858Z,5.24
2023-04-16T05:38:04.514Z,5.20
2023-04-16T05:40:32.349Z,5.22
2023-04-16T05:42:58.787Z,5.27
2023-04-16T05:45:26.729Z,5.25
2023-04-16T05:47:54.540Z,5.27
2023-04-16T05:50:20.984Z,5.27
2023-04-16T05:52:47.682Z,5.23
2023-04-16T05:55:14.162Z,5.30
2023-04-16T05:57:40.707Z,5.21
2023-04-16T06:00:08.048Z,5.28
2023-04-16T06:02:34.729Z,5.24
2023-04-16T06:05:01.367Z,5.24
2023-04-16T06:07:27.804Z,5.25
2023-04-16T06:09:54.345Z,5.34
2023-04-16T06:12:20.810Z,5.33
2023-04-16T06:14:48.404Z,5.27
2023-04-16T06:17:14.902Z,5.37
2023-04-16T06:19:41.339Z,5.38
2023-04-16T06:22:07.868Z,5.42
2023-04-16T06:24:34.352Z,5.39
2023-04-16T06:27:00.877Z,5.47
2023-04-16T06:29:36.817Z,5.38
2023-04-16T06:32:07.903Z,5.49
2023-04-16T06:34:34.538Z,5.48
2023-04-16T06:37:01.271Z,5.45
2023-04-16T06:39:27.992Z,5.49
2023-04-16T06:41:54.574Z,5.48
2023-04-16T06:44:21.314Z,5.48
2023-04-16T06:46:47.869Z,5.47
2023-04-16T06:49:14.367Z,5.46
2023-04-16T06:51:41.953Z,5.45
2023-04-16T06:54:08.560Z,5.51
2023-04-16T06:56:37.295Z,5.55
2023-04-16T06:59:04.241Z,5.62
2023-04-16T07:01:33.527Z,5.58
2023-04-16T07:04:00.306Z,5.50
2023-04-16T07:06:27.157Z,5.52
2023-04-16T07:08:53.644Z,5.49
2023-04-16T07:11:20.907Z,5.51
2023-04-16T07:13:47.397Z,5.59
2023-04-16T07:16:13.975Z,5.65
2023-04-16T07:18:40.425Z,5.60
2023-04-16T07:21:06.861Z,5.61
2023-04-16T07:23:33.374Z,5.60
2023-04-16T07:25:59.833Z,5.66
2023-04-16T07:28:26.330Z,5.67
2023-04-16T07:30:52.837Z,5.67
2023-04-16T07:33:19.293Z,5.65
2023-04-16T07:35:45.779Z,5.72
2023-04-16T07:38:12.298Z,5.74
2023-04-16T07:40:38.827Z,5.77
2023-04-16T07:43:05.374Z,5.82
2023-04-16T07:45:31.854Z,5.75
2023-04-16T07:47:58.553Z,5.69
2023-04-16T07:50:25.414Z,5.70
2023-04-16T07:52:51.928Z,5.81
2023-04-16T07:55:18.414Z,5.84
2023-04-16T07:57:44.893Z,5.84
2023-04-16T08:00:11.913Z,5.76
2023-04-16T08:02:38.656Z,5.87
2023-04-16T08:05:05.605Z,5.82
2023-04-16T08:07:34.044Z,5.74
2023-04-16T08:10:01.316Z,5.70
2023-04-16T08:12:27.814Z,5.74
2023-04-16T08:14:54.360Z,5.75
2023-04-16T08:17:20.889Z,5.82
2023-04-16T08:19:47.476Z,5.84
2023-04-16T08:22:14.092Z,5.89
2023-04-16T08:24:40.777Z,5.92
2023-04-16T08:27:17.947Z,5.92
2023-04-16T08:29:46.272Z,5.97
2023-04-16T08:32:12.890Z,5.89
2023-04-16T08:34:39.494Z,5.95
2023-04-16T08:37:06.031Z,5.98
2023-04-16T08:39:32.649Z,5.99
2023-04-16T08:42:00.609Z,5.96
2023-04-16T08:44:32.644Z,5.92
2023-04-16T08:47:00.340Z,5.90
2023-04-16T08:49:27.600Z,5.92
2023-04-16T08:51:55.626Z,5.98
2023-04-16T08:54:56.722Z,5.96
2023-04-16T08:57:26.833Z,6.02
2023-04-16T08:59:55.184Z,5.95
2023-04-16T09:02:22.288Z,5.99
2023-04-16T09:04:50.695Z,5.97
2023-04-16T09:07:19.506Z,5.97
2023-04-16T09:09:48.463Z,5.93
2023-04-16T09:12:15.359Z,5.96
2023-04-16T09:14:43.034Z,5.96
2023-04-16T09:17:10.354Z,5.93
2023-04-16T09:19:37.055Z,5.94
2023-04-16T09:22:03.474Z,6.00
2023-04-16T09:24:30.023Z,5.94
2023-04-16T09:26:57.436Z,5.97
2023-04-16T09:29:49.899Z,6.10
2023-04-16T09:32:16.473Z,6.15
2023-04-16T09:35:00.152Z,6.21
2023-04-16T09:37:29.864Z,6.19
2023-04-16T09:40:01.330Z,6.23
2023-04-16T09:42:30.015Z,6.36
2023-04-16T09:44:59.428Z,6.32
2023-04-16T09:47:39.833Z,6.39
2023-04-16T09:50:07.554Z,6.42
2023-04-16T09:52:36.999Z,6.34
2023-04-16T09:55:03.533Z,6.39
2023-04-16T09:57:30.467Z,6.40
2023-04-16T10:00:05.950Z,6.30
2023-04-16T10:02:34.564Z,6.36
2023-04-16T10:05:05.246Z,6.36
2023-04-16T10:07:36.215Z,6.26
2023-04-16T10:10:04.415Z,6.31
2023-04-16T10:12:32.917Z,6.25
2023-04-16T10:14:59.732Z,6.29
2023-04-16T10:17:29.879Z,6.10
2023-04-16T10:19:58.363Z,6.15
2023-04-16T10:22:26.320Z,6.16
2023-04-16T10:24:53.935Z,6.16
2023-04-16T10:27:20.703Z,6.18
2023-04-16T10:29:48.750Z,6.28
2023-04-16T10:32:16.928Z,6.35
2023-04-16T10:34:43.482Z,6.48
2023-04-16T10:37:09.915Z,6.63
2023-04-16T10:39:37.552Z,6.70
2023-04-16T10:42:09.955Z,6.81
2023-04-16T10:44:36.617Z,6.84
2023-04-16T10:47:03.383Z,6.73
2023-04-16T10:49:29.987Z,6.80
2023-04-16T10:52:11.595Z,6.77
2023-04-16T10:54:38.838Z,6.65
2023-04-16T10:57:06.752Z,6.57
2023-04-16T10:59:35.921Z,6.60
2023-04-16T11:02:09.098Z,6.60
2023-04-16T11:04:38.112Z,6.62
2023-04-16T11:07:15.423Z,6.48
2023-04-16T11:09:52.539Z,6.50
2023-04-16T11:12:37.894Z,6.60
2023-04-16T11:15:06.335Z,6.66
2023-04-16T11:17:44.067Z,6.66
2023-04-16T11:20:27.873Z,6.55
2023-04-16T11:22:56.496Z,6.67
2023-04-16T11:25:31.288Z,6.65
2023-04-16T11:28:01.423Z,6.77
2023-04-16T11:30:36.293Z,6.93
2023-04-16T11:33:12.472Z,6.93
2023-04-16T11:35:39.806Z,7.18
2023-04-16T11:38:07.244Z,7.12
2023-04-16T11:40:34.234Z,7.19
2023-04-16T11:43:15.077Z,7.39
2023-04-16T11:45:59.273Z,7.29
2023-04-16T11:48:26.494Z,7.46
2023-04-16T11:50:57.143Z,7.59
2023-04-16T11:53:23.804Z,7.74
2023-04-16T11:55:50.414Z,7.58
2023-04-16T11:58:17.066Z,7.33
2023-04-16T12:00:45.227Z,7.21
2023-04-16T12:03:12.100Z,7.17
2023-04-16T12:05:40.724Z,7.01
2023-04-16T12:08:12.436Z,6.99
2023-04-16T12:10:54.871Z,7.05
2023-04-16T12:13:21.698Z,7.19
2023-04-16T12:15:50.068Z,7.16
2023-04-16T12:18:17.848Z,7.12
2023-04-16T12:20:45.599Z,7.12
2023-04-16T12:23:25.425Z,7.13
2023-04-16T12:25:52.351Z,7.04
2023-04-16T12:28:29.918Z,7.07
2023-04-16T12:30:56.567Z,6.88
2023-04-16T12:33:23.204Z,6.91
2023-04-16T12:35:50.902Z,6.82
2023-04-16T12:38:17.450Z,6.67
2023-04-16T12:40:44.252Z,6.61
2023-04-16T12:43:11.078Z,6.64
2023-04-16T12:45:38.779Z,6.64
2023-04-16T12:48:05.733Z,6.68
2023-04-16T12:50:32.711Z,6.67
2023-04-16T12:52:59.589Z,6.54
2023-04-16T12:55:26.052Z,6.53
2023-04-16T12:57:55.186Z,6.65
2023-04-16T13:00:22.559Z,6.60
2023-04-16T13:02:49.259Z,6.53
2023-04-16T13:05:17.178Z,6.55
2023-04-16T13:07:43.652Z,6.44
2023-04-16T13:10:10.467Z,6.47
2023-04-16T13:12:37.065Z,6.51
2023-04-16T13:15:03.832Z,6.51
2023-04-16T13:17:30.526Z,6.50
2023-04-16T13:19:57.011Z,6.56
2023-04-16T13:22:24.275Z,6.44
2023-04-16T13:24:50.870Z,6.46
2023-04-16T13:27:17.922Z,6.41
2023-04-16T13:29:44.825Z,6.37
2023-04-16T13:32:13.701Z,6.42
2023-04-16T13:34:40.289Z,6.37
2023-04-16T13:37:06.834Z,6.46
2023-04-16T13:39:33.664Z,6.45
2023-04-16T13:42:00.342Z,6.44
2023-04-16T13:44:26.828Z,6.56
2023-04-16T13:46:53.577Z,6.66
2023-04-16T13:49:20.270Z,6.73
2023-04-16T13:51:46.733Z,6.69
2023-04-16T13:54:13.356Z,6.78
2023-04-16T13:56:40.860Z,6.77
2023-04-16T13:59:07.974Z,6.89
2023-04-16T14:01:34.559Z,6.96
2023-04-16T14:04:06.119Z,6.92
2023-04-16T14:06:33.962Z,6.95
2023-04-16T14:09:00.463Z,7.03
2023-04-16T14:11:26.890Z,7.00
2023-04-16T14:13:53.432Z,6.98
2023-04-16T14:16:20.083Z,6.99
2023-04-16T14:18:47.541Z,7.13
2023-04-16T14:21:13.989Z,7.14
2023-04-16T14:23:41.174Z,7.13
2023-04-16T14:26:08.115Z,7.08
2023-04-16T14:28:35.643Z,7.11
2023-04-16T14:31:02.277Z,7.17
2023-04-16T14:33:28.841Z,7.22
2023-04-16T14:35:55.469Z,7.22
2023-04-16T14:38:21.995Z,7.32
2023-04-16T14:40:48.724Z,7.38
2023-04-16T14:43:15.373Z,7.32
2023-04-16T14:45:42.272Z,7.38
2023-04-16T14:48:08.781Z,7.33
2023-04-16T14:50:39.104Z,7.32
2023-04-16T14:53:05.917Z,7.23
2023-04-16T14:55:32.601Z,7.12
2023-04-16T14:57:59.786Z,7.07
2023-04-16T15:00:27.488Z,7.16
2023-04-16T15:02:55.097Z,7.07
2023-04-16T15:05:22.117Z,7.07
2023-04-16T15:07:48.543Z,6.99
2023-04-16T15:10:15.127Z,7.11
2023-04-16T15:12:41.565Z,6.95
2023-04-16T15:15:09.046Z,6.90
2023-04-16T15:17:35.933Z,6.90
2023-04-16T15:20:06.005Z,6.85
2023-04-16T15:22:32.476Z,6.72
2023-04-16T15:24:58.894Z,6.68
2023-04-16T15:27:25.619Z,6.74
2023-04-16T15:29:53.876Z,6.64
2023-04-16T15:32:20.815Z,6.61
2023-04-16T15:34:47.394Z,6.61
2023-04-16T15:37:14.023Z,6.66
2023-04-16T15:39:40.761Z,6.65
2023-04-16T15:42:08.380Z,6.55
2023-04-16T15:44:35.043Z,6.61
2023-04-16T15:47:01.545Z,6.58
2023-04-16T15:49:28.068Z,6.65
2023-04-16T15:51:55.685Z,6.71
2023-04-16T15:54:22.429Z,6.71
2023-04-16T15:56:48.959Z,6.64
2023-04-16T15:59:15.668Z,6.68
2023-04-16T16:01:42.196Z,6.71
2023-04-16T16:04:08.937Z,6.68
2023-04-16T16:06:37.894Z,6.73
2023-04-16T16:09:04.921Z,6.71
2023-04-16T16:11:32.609Z,6.75
2023-04-16T16:14:01.307Z,6.70
2023-04-16T16:16:28.620Z,6.65
2023-04-16T16:18:55.411Z,6.58
2023-04-16T16:21:22.023Z,6.65
2023-04-16T16:23:48.608Z,6.56
2023-04-16T16:26:15.111Z,6.56
2023-04-16T16:28:43.753Z,6.47
2023-04-16T16:31:12.164Z,6.46
2023-04-16T16:33:40.301Z,6.41
2023-04-16T16:36:10.763Z,6.38
2023-04-16T16:38:37.898Z,6.37
2023-04-16T16:41:04.351Z,6.20
2023-04-16T16:43:31.001Z,6.20
2023-04-16T16:45:57.465Z,6.16
2023-04-16T16:48:23.938Z,6.17
2023-04-16T16:50:50.541Z,6.17
2023-04-16T16:53:17.114Z,6.09
2023-04-16T16:55:43.547Z,6.20
2023-04-16T16:58:10.157Z,6.16
2023-04-16T17:00:37.674Z,6.03
2023-04-16T17:03:04.301Z,5.99
2023-04-16T17:05:31.059Z,5.92
2023-04-16T17:07:57.506Z,5.89
2023-04-16T17:10:25.096Z,5.82
2023-04-16T17:12:51.822Z,5.87
2023-04-16T17:15:21.239Z,5.82
2023-04-16T17:17:48.455Z,5.77
2023-04-16T17:20:15.599Z,5.76
2023-04-16T17:22:42.426Z,5.81
2023-04-16T17:25:09.216Z,5.79
2023-04-16T17:27:36.017Z,5.71
2023-04-16T17:30:05.285Z,5.72
2023-04-16T17:32:32.573Z,5.76
2023-04-16T17:35:00.970Z,5.72
2023-04-16T17:37:27.623Z,5.66
2023-04-16T17:39:54.227Z,5.66
2023-04-16T17:42:20.762Z,5.64
2023-04-16T17:44:47.535Z,5.59
2023-04-16T17:47:14.029Z,5.58
2023-04-16T17:49:40.659Z,5.59
2023-04-16T17:52:07.160Z,5.61
2023-04-16T17:54:33.635Z,5.61
2023-04-16T17:57:00.154Z,5.52
2023-04-16T17:59:27.311Z,5.49
2023-04-16T18:01:54.780Z,5.52
2023-04-16T18:04:21.527Z,5.51
2023-04-16T18:06:48.335Z,5.54
2023-04-16T18:09:15.472Z,5.55
2023-04-16T18:11:42.129Z,5.55
2023-04-16T18:14:10.011Z,5.54
2023-04-16T18:16:36.793Z,5.55
2023-04-16T18:19:03.344Z,5.51
2023-04-16T18:21:30.399Z,5.47
2023-04-16T18:23:57.478Z,5.44
2023-04-16T18:26:25.261Z,5.43
2023-04-16T18:28:51.980Z,5.38
2023-04-16T18:31:21.055Z,5.36
2023-04-16T18:33:56.706Z,5.35
2023-04-16T18:36:24.419Z,5.39
2023-04-16T18:39:00.795Z,5.28
2023-04-16T18:41:28.036Z,5.31
2023-04-16T18:43:54.728Z,5.31
2023-04-16T18:46:21.229Z,5.29
2023-04-16T18:48:48.153Z,5.27
2023-04-16T18:51:16.359Z,5.29
2023-04-16T18:53:45.243Z,5.26
2023-04-16T18:56:11.770Z,5.23
2023-04-16T18:58:38.267Z,5.22
2023-04-16T19:01:07.724Z,5.25
2023-04-16T19:03:34.446Z,5.27
2023-04-16T19:06:01.132Z,5.24
2023-04-16T19:08:27.798Z,5.27
2023-04-16T19:10:54.369Z,5.25
2023-04-16T19:13:20.939Z,5.21
2023-04-16T19:15:47.439Z,5.24
2023-04-16T19:18:14.005Z,5.18
2023-04-16T19:20:40.514Z,5.18
2023-04-16T19:23:09.221Z,5.18
2023-04-16T19:25:36.670Z,5.23
2023-04-16T19:28:03.807Z,5.21
2023-04-16T19:30:30.879Z,5.20
2023-04-16T19:32:57.615Z,5.16
2023-04-16T19:35:24.282Z,5.14
2023-04-16T19:37:51.064Z,5.17
2023-04-16T19:40:17.666Z,5.16
2023-04-16T19:42:45.376Z,5.16
2023-04-16T19:45:11.977Z,5.12
2023-04-16T19:47:38.689Z,5.16
2023-04-16T19:50:05.829Z,5.08
2023-04-16T19:52:37.317Z,5.05
2023-04-16T19:55:04.410Z,5.02
2023-04-16T19:57:30.934Z,4.98
2023-04-16T19:59:57.401Z,5.02
2023-04-16T20:02:23.993Z,4.99
2023-04-16T20:04:50.776Z,5.03
2023-04-16T20:07:17.511Z,4.99
2023-04-16T20:09:44.083Z,5.02
2023-04-16T20:12:10.936Z,5.07
2023-04-16T20:14:37.366Z,5.05
2023-04-16T20:17:04.045Z,5.03
2023-04-16T20:19:33.650Z,5.09
2023-04-16T20:22:00.363Z,5.07
2023-04-16T20:24:26.812Z,5.08
2023-04-16T20:26:53.292Z,5.07
2023-04-16T20:29:19.879Z,5.04
2023-04-16T20:31:46.636Z,5.05
2023-04-16T20:34:13.097Z,5.08
2023-04-16T20:36:39.554Z,5.03
2023-04-16T20:39:08.138Z,5.01
2023-04-16T20:41:34.996Z,4.98
2023-04-16T20:44:05.447Z,5.03
2023-04-16T20:46:34.155Z,5.01
2023-04-16T20:49:03.507Z,4.99
2023-04-16T20:51:29.954Z,5.01
2023-04-16T20:53:56.718Z,4.99
2023-04-16T20:56:23.157Z,4.95
2023-04-16T20:58:49.712Z,4.96
2023-04-16T21:01:18.274Z,4.96
2023-04-16T21:03:45.187Z,4.95
2023-04-16T21:06:14.416Z,4.88
2023-04-16T21:08:41.125Z,4.90
2023-04-16T21:11:07.581Z,4.89
2023-04-16T21:13:34.331Z,4.87
2023-04-16T21:16:00.929Z,4.87
2023-04-16T21:18:27.599Z,4.87
2023-04-16T21:20:54.030Z,4.75
2023-04-16T21:23:20.642Z,4.76
2023-04-16T21:25:47.113Z,4.77
2023-04-16T21:28:13.598Z,4.68
2023-04-16T21:30:40.446Z,4.69
2023-04-16T21:33:07.052Z,4.77
2023-04-16T21:35:33.594Z,4.75
2023-04-16T21:38:00.346Z,4.66
2023-04-16T21:40:26.855Z,4.70
2023-04-16T21:42:53.624Z,4.74
2023-04-16T21:45:20.235Z,4.69
2023-04-16T21:47:46.657Z,4.59
2023-04-16T21:50:13.332Z,4.65
2023-04-16T21:52:40.339Z,4.67
2023-04-16T21:55:16.663Z,4.64
2023-04-16T21:57:43.235Z,4.57
2023-04-16T22:00:13.881Z,4.56
2023-04-16T22:02:42.292Z,4.54
2023-04-16T22:05:09.404Z,4.52
2023-04-16T22:07:36.735Z,4.49
2023-04-16T22:10:04.472Z,4.44
2023-04-16T22:12:31.059Z,4.44
2023-04-16T22:15:02.345Z,4.44
2023-04-16T22:17:30.102Z,4.46
2023-04-16T22:20:00.368Z,4.42
2023-04-16T22:22:26.773Z,4.42
2023-04-16T22:24:53.439Z,4.44
2023-04-16T22:27:19.931Z,4.46
2023-04-16T22:29:46.551Z,4.38
2023-04-16T22:32:13.096Z,4.39
2023-04-16T22:34:39.633Z,4.38
2023-04-16T22:37:07.973Z,4.27
2023-04-16T22:39:34.696Z,4.32
2023-04-16T22:42:02.803Z,4.35
2023-04-16T22:44:29.350Z,4.31
2023-04-16T22:46:56.046Z,4.31
2023-04-16T22:49:22.511Z,4.32
2023-04-16T22:51:49.137Z,4.36
2023-04-16T22:54:15.772Z,4.31
2023-04-16T22:56:42.292Z,4.27
2023-04-16T22:59:08.964Z,4.24
2023-04-16T23:01:35.787Z,4.22
2023-04-16T23:04:02.538Z,4.25
2023-04-16T23:06:29.042Z,4.35
2023-04-16T23:08:55.620Z,4.29
2023-04-16T23:11:22.209Z,4.32
2023-04-16T23:13:48.760Z,4.32
2023-04-16T23:16:15.458Z,4.36
2023-04-16T23:18:42.050Z,4.34
2023-04-16T23:21:08.520Z,4.29
2023-04-16T23:23:34.971Z,4.30
2023-04-16T23:26:02.771Z,4.31
2023-04-16T23:28:29.211Z,4.28
2023-04-16T23:30:55.928Z,4.23
2023-04-16T23:33:22.606Z,4.25
2023-04-16T23:35:49.074Z,4.30
2023-04-16T23:38:15.648Z,4.26
2023-04-16T23:40:42.212Z,4.27
2023-04-16T23:43:10.098Z,4.23
2023-04-16T23:45:36.847Z,4.28
2023-04-16T23:48:03.524Z,4.25
2023-04-16T23:50:30.269Z,4.25
2023-04-16T23:52:56.839Z,4.26
2023-04-16T23:55:23.492Z,4.24
2023-04-16T23:57:50.013Z,4.28
